Boone Observed Data For Previous 48 Hours

Caption
Day and Hour Reservoir Elevation (behind dam)* Tailwater Elevation (below dam)* Average Hourly Discharge*
12/16/2018 2 AM EST 1,354.17 1,263.31 3,126
12/16/2018 3 AM EST 1,354.24 1,263.48 3,208
12/16/2018 4 AM EST 1,354.30 1,263.21 3,297
12/16/2018 5 AM EST 1,354.34 1,263.06 3,462
12/16/2018 6 AM EST 1,354.39 1,263.12 3,569
12/16/2018 7 AM EST 1,354.39 1,264.42 4,286
12/16/2018 8 AM EST 1,354.34 1,264.57 6,914
12/16/2018 9 AM EST 1,354.27 1,264.51 7,130
12/16/2018 10 AM EST 1,354.22 1,264.50 6,706
12/16/2018 11 AM EST 1,354.25 1,263.19 3,447
12/16/2018 12 PM EST 1,354.31 1,263.47 3,110
12/16/2018 1 PM EST 1,354.35 1,263.17 3,574
12/16/2018 2 PM EST 1,354.39 1,263.15 3,300
12/16/2018 3 PM EST 1,354.45 1,263.04 3,291
12/16/2018 4 PM EST 1,354.42 1,263.65 3,389
12/16/2018 5 PM EST 1,354.40 1,263.81 6,699
12/16/2018 6 PM EST 1,354.30 1,264.49 7,287
12/16/2018 7 PM EST 1,354.19 1,264.34 6,975
12/16/2018 8 PM EST 1,354.16 1,264.26 6,691
12/16/2018 9 PM EST 1,354.09 1,264.18 6,459
12/16/2018 10 PM EST 1,354.10 1,263.52 3,391
12/16/2018 11 PM EST 1,354.15 1,263.50 3,213
12/17/2018 12 AM EST 1,354.19 1,263.20 3,314
12/17/2018 1 AM EST 1,354.23 1,263.27 3,261
12/17/2018 2 AM EST 1,354.24 1,263.32 3,659
12/17/2018 3 AM EST 1,354.27 1,263.29 3,739
12/17/2018 4 AM EST 1,354.29 1,263.51 3,592
12/17/2018 5 AM EST 1,354.31 1,263.28 3,615
12/17/2018 6 AM EST 1,354.35 1,263.36 3,511
12/17/2018 7 AM EST 1,354.37 1,263.51 3,557
12/17/2018 8 AM EST 1,354.39 1,263.31 3,685
12/17/2018 9 AM EST 1,354.42 1,263.26 3,082
12/17/2018 10 AM EST 1,354.40 1,263.74 3,220
12/17/2018 11 AM EST 1,354.38 1,264.02 6,381
12/17/2018 12 PM EST 1,354.32 1,263.88 6,481
12/17/2018 1 PM EST 1,354.23 1,263.96 6,513
12/17/2018 2 PM EST 1,354.13 1,264.62 6,567
12/17/2018 3 PM EST 1,354.03 1,264.49 6,642
12/17/2018 4 PM EST 1,353.96 1,264.55 6,473
12/17/2018 5 PM EST 1,353.91 1,264.62 6,912
12/17/2018 6 PM EST 1,353.80 1,264.55 6,927
12/17/2018 7 PM EST 1,353.79 1,264.46 6,759
12/17/2018 8 PM EST 1,353.77 1,264.00 6,560
12/17/2018 9 PM EST 1,353.78 1,264.29 6,464
12/17/2018 10 PM EST 1,353.77 1,263.94 6,458
12/17/2018 11 PM EST 1,353.76 1,264.54 6,866
12/18/2018 12 AM EST 1,353.77 1,264.51 6,685
12/18/2018 1 AM EST 1,353.73 1,264.59 6,751
12/18/2018 2 AM EST 1,353.72 1,264.62 6,775
12/18/2018 3 AM EST 1,353.81 1,263.62 3,524
12/18/2018 4 AM EST 1,353.93 1,263.61 3,474
12/18/2018 5 AM EST 1,353.97 1,264.31 3,594
12/18/2018 6 AM EST 1,354.00 1,264.85 7,246
12/18/2018 7 AM EST 1,353.97 1,264.84 7,482

Elevations are in feet above sea level. Discharges are in cubic feet per second and are reported at the end of the hour.